KDUG/DUG METAR and TAF weather

Enter ICAO airport designator
Station Type Date Time Source
KDUG METAR 2018/04/27 00:56 UTC NOAA

KDUG 270056Z AUTO 23010KT 10SM CLR 28/M04 A2996 RMK AO2 SLP088 T02781039


Station Type Date Time Source
KDUG Decoded METAR 2018/04/27 00:56 UTC NOAA

BISBEE DOUGLAS INTERNATIONAL AIRPORT , AZ, United States (KDUG) 31-28N 109-36W
Apr 26, 2018 - 08:56 PM EDT / 2018.04.27 0056 UTC
Wind: from the SW (230 degrees) at 12 MPH (10 KT):0
Visibility: 10 mile(s):0
Sky conditions: clear
Temperature: 82.0 F (27.8 C)
Dew Point: 25.0 F (-3.9 C)
Relative Humidity: 12%
Pressure (altimeter): 29.96 in. Hg (1014 hPa)
ob: KDUG 270056Z AUTO 23010KT 10SM CLR 28/M04 A2996 RMK AO2 SLP088 T02781039
cycle: 1

Station Type Date Time Source
KDUG TAF 2018/04/26 18:27 UTC NOAA

TAF KDUG 261724Z 2618/2718 21006KT P6SM BKN250
FM262100 26009G19KT P6SM BKN250
FM270500 03005KT P6SM SCT110 BKN250
FM270900 09010KT P6SM SCT100 BKN200
FM271500 12016G26KT P6SM BKN100 OVC250


Example: see airport list